sensor_id;sensor_type;location;lat;lon;timestamp;temperature;humidity
68842;SHT35;55849;48.482;2.332;2024-01-30T00:02:14;9.66;75.63
68842;SHT35;55849;48.482;2.332;2024-01-30T00:05:16;9.66;75.72
68842;SHT35;55849;48.482;2.332;2024-01-30T00:08:18;9.67;75.59
68842;SHT35;55849;48.482;2.332;2024-01-30T00:11:21;9.65;75.67
68842;SHT35;55849;48.482;2.332;2024-01-30T00:14:22;9.66;75.71
68842;SHT35;55849;48.482;2.332;2024-01-30T00:17:24;9.67;75.76
68842;SHT35;55849;48.482;2.332;2024-01-30T00:20:26;9.69;75.80
68842;SHT35;55849;48.482;2.332;2024-01-30T00:23:28;9.69;75.82
68842;SHT35;55849;48.482;2.332;2024-01-30T00:26:31;9.70;75.81
68842;SHT35;55849;48.482;2.332;2024-01-30T00:29:32;9.70;75.74
68842;SHT35;55849;48.482;2.332;2024-01-30T00:32:34;9.72;75.81
68842;SHT35;55849;48.482;2.332;2024-01-30T00:35:35;9.72;75.81
68842;SHT35;55849;48.482;2.332;2024-01-30T00:38:37;9.69;75.84
68842;SHT35;55849;48.482;2.332;2024-01-30T00:41:40;9.75;76.07
68842;SHT35;55849;48.482;2.332;2024-01-30T00:44:41;9.72;76.31
68842;SHT35;55849;48.482;2.332;2024-01-30T00:47:43;9.75;76.12
68842;SHT35;55849;48.482;2.332;2024-01-30T00:50:45;9.76;75.97
68842;SHT35;55849;48.482;2.332;2024-01-30T00:53:47;9.77;75.93
68842;SHT35;55849;48.482;2.332;2024-01-30T00:56:50;9.77;75.98
68842;SHT35;55849;48.482;2.332;2024-01-30T00:59:51;9.76;76.28
68842;SHT35;55849;48.482;2.332;2024-01-30T01:02:53;9.77;76.11
68842;SHT35;55849;48.482;2.332;2024-01-30T01:05:54;9.77;75.99
68842;SHT35;55849;48.482;2.332;2024-01-30T01:08:56;9.79;75.93
68842;SHT35;55849;48.482;2.332;2024-01-30T01:11:59;9.79;76.16
68842;SHT35;55849;48.482;2.332;2024-01-30T01:15:00;9.79;76.02
68842;SHT35;55849;48.482;2.332;2024-01-30T01:18:03;9.77;75.97
68842;SHT35;55849;48.482;2.332;2024-01-30T01:21:04;9.82;75.92
68842;SHT35;55849;48.482;2.332;2024-01-30T01:24:06;9.82;76.10
68842;SHT35;55849;48.482;2.332;2024-01-30T01:27:09;9.82;76.08
68842;SHT35;55849;48.482;2.332;2024-01-30T01:30:12;9.82;76.01
68842;SHT35;55849;48.482;2.332;2024-01-30T01:33:19;9.83;76.12
68842;SHT35;55849;48.482;2.332;2024-01-30T01:36:20;9.83;76.61
68842;SHT35;55849;48.482;2.332;2024-01-30T01:39:22;9.84;76.36
68842;SHT35;55849;48.482;2.332;2024-01-30T01:42:25;9.86;76.29
68842;SHT35;55849;48.482;2.332;2024-01-30T01:45:27;9.89;76.15
68842;SHT35;55849;48.482;2.332;2024-01-30T01:48:29;9.90;76.20
68842;SHT35;55849;48.482;2.332;2024-01-30T01:51:31;9.89;76.24
68842;SHT35;55849;48.482;2.332;2024-01-30T01:54:34;9.91;76.23
68842;SHT35;55849;48.482;2.332;2024-01-30T01:57:38;9.90;76.17
68842;SHT35;55849;48.482;2.332;2024-01-30T02:00:39;9.89;76.24
68842;SHT35;55849;48.482;2.332;2024-01-30T02:03:42;9.91;76.29
68842;SHT35;55849;48.482;2.332;2024-01-30T02:06:44;9.93;76.32
68842;SHT35;55849;48.482;2.332;2024-01-30T02:09:45;9.95;76.40
68842;SHT35;55849;48.482;2.332;2024-01-30T02:12:48;9.93;76.45
68842;SHT35;55849;48.482;2.332;2024-01-30T02:15:50;9.97;76.45
68842;SHT35;55849;48.482;2.332;2024-01-30T02:18:52;9.98;76.41
68842;SHT35;55849;48.482;2.332;2024-01-30T02:21:55;9.98;76.38
68842;SHT35;55849;48.482;2.332;2024-01-30T02:24:57;10.00;76.39
68842;SHT35;55849;48.482;2.332;2024-01-30T02:27:58;10.00;76.57
68842;SHT35;55849;48.482;2.332;2024-01-30T02:31:00;10.04;76.50
68842;SHT35;55849;48.482;2.332;2024-01-30T02:34:01;10.04;76.57
68842;SHT35;55849;48.482;2.332;2024-01-30T02:37:04;10.03;76.57
68842;SHT35;55849;48.482;2.332;2024-01-30T02:40:07;10.03;76.45
68842;SHT35;55849;48.482;2.332;2024-01-30T02:43:09;10.05;76.53
68842;SHT35;55849;48.482;2.332;2024-01-30T02:46:10;10.05;76.50
68842;SHT35;55849;48.482;2.332;2024-01-30T02:49:12;10.05;76.43
68842;SHT35;55849;48.482;2.332;2024-01-30T02:52:16;10.05;76.54
68842;SHT35;55849;48.482;2.332;2024-01-30T02:55:17;10.04;76.19
68842;SHT35;55849;48.482;2.332;2024-01-30T02:58:19;10.05;76.20
68842;SHT35;55849;48.482;2.332;2024-01-30T03:01:20;10.04;76.40
68842;SHT35;55849;48.482;2.332;2024-01-30T03:04:22;10.03;76.21
68842;SHT35;55849;48.482;2.332;2024-01-30T03:07:25;10.00;76.32
68842;SHT35;55849;48.482;2.332;2024-01-30T03:10:26;10.01;76.13
68842;SHT35;55849;48.482;2.332;2024-01-30T03:13:28;10.00;76.14
68842;SHT35;55849;48.482;2.332;2024-01-30T03:16:30;9.97;76.17
68842;SHT35;55849;48.482;2.332;2024-01-30T03:19:31;9.94;76.17
68842;SHT35;55849;48.482;2.332;2024-01-30T03:22:34;9.93;76.13
68842;SHT35;55849;48.482;2.332;2024-01-30T03:25:36;9.91;76.12
68842;SHT35;55849;48.482;2.332;2024-01-30T03:28:37;9.87;76.18
68842;SHT35;55849;48.482;2.332;2024-01-30T03:31:39;9.87;76.29
68842;SHT35;55849;48.482;2.332;2024-01-30T03:34:41;9.87;76.25
68842;SHT35;55849;48.482;2.332;2024-01-30T03:37:44;9.84;76.23
68842;SHT35;55849;48.482;2.332;2024-01-30T03:40:45;9.87;76.34
68842;SHT35;55849;48.482;2.332;2024-01-30T03:43:47;9.86;76.30
68842;SHT35;55849;48.482;2.332;2024-01-30T03:46:49;9.84;76.38
68842;SHT35;55849;48.482;2.332;2024-01-30T03:49:50;9.84;76.26
68842;SHT35;55849;48.482;2.332;2024-01-30T03:52:53;9.84;76.35
68842;SHT35;55849;48.482;2.332;2024-01-30T03:55:55;9.83;76.31
68842;SHT35;55849;48.482;2.332;2024-01-30T03:58:56;9.80;76.32
68842;SHT35;55849;48.482;2.332;2024-01-30T04:01:59;9.80;76.22
68842;SHT35;55849;48.482;2.332;2024-01-30T04:05:01;9.79;76.35
68842;SHT35;55849;48.482;2.332;2024-01-30T04:08:04;9.76;76.17
68842;SHT35;55849;48.482;2.332;2024-01-30T04:11:06;9.76;76.14
68842;SHT35;55849;48.482;2.332;2024-01-30T04:14:08;9.75;76.15
68842;SHT35;55849;48.482;2.332;2024-01-30T04:17:09;9.75;76.19
68842;SHT35;55849;48.482;2.332;2024-01-30T04:20:13;9.73;76.39
68842;SHT35;55849;48.482;2.332;2024-01-30T04:23:16;9.72;76.48
68842;SHT35;55849;48.482;2.332;2024-01-30T04:26:18;9.72;76.66
68842;SHT35;55849;48.482;2.332;2024-01-30T04:29:20;9.75;76.96
68842;SHT35;55849;48.482;2.332;2024-01-30T04:32:22;9.75;76.97
68842;SHT35;55849;48.482;2.332;2024-01-30T04:35:24;9.76;76.92
68842;SHT35;55849;48.482;2.332;2024-01-30T04:38:27;9.76;76.79
68842;SHT35;55849;48.482;2.332;2024-01-30T04:41:28;9.77;76.81
68842;SHT35;55849;48.482;2.332;2024-01-30T04:44:31;9.77;76.80
68842;SHT35;55849;48.482;2.332;2024-01-30T04:47:33;9.80;77.08
68842;SHT35;55849;48.482;2.332;2024-01-30T04:50:34;9.76;77.38
68842;SHT35;55849;48.482;2.332;2024-01-30T04:53:37;9.86;77.61
68842;SHT35;55849;48.482;2.332;2024-01-30T04:56:40;9.82;77.62
68842;SHT35;55849;48.482;2.332;2024-01-30T04:59:41;9.87;77.45
68842;SHT35;55849;48.482;2.332;2024-01-30T05:02:43;9.90;77.47
68842;SHT35;55849;48.482;2.332;2024-01-30T05:05:45;9.94;77.37
68842;SHT35;55849;48.482;2.332;2024-01-30T05:08:48;9.93;77.46
68842;SHT35;55849;48.482;2.332;2024-01-30T05:11:49;9.97;77.54
68842;SHT35;55849;48.482;2.332;2024-01-30T05:14:51;9.98;78.09
68842;SHT35;55849;48.482;2.332;2024-01-30T05:17:52;10.03;78.12
68842;SHT35;55849;48.482;2.332;2024-01-30T05:20:54;10.04;78.80
68842;SHT35;55849;48.482;2.332;2024-01-30T05:23:57;10.10;78.91
68842;SHT35;55849;48.482;2.332;2024-01-30T05:26:58;10.14;79.21
68842;SHT35;55849;48.482;2.332;2024-01-30T05:30:00;10.22;78.99
68842;SHT35;55849;48.482;2.332;2024-01-30T05:33:01;10.24;78.72
68842;SHT35;55849;48.482;2.332;2024-01-30T05:36:04;10.28;78.89
68842;SHT35;55849;48.482;2.332;2024-01-30T05:39:07;10.32;78.89
68842;SHT35;55849;48.482;2.332;2024-01-30T05:42:09;10.36;78.87
68842;SHT35;55849;48.482;2.332;2024-01-30T05:45:11;10.38;79.04
68842;SHT35;55849;48.482;2.332;2024-01-30T05:48:12;10.44;78.95
68842;SHT35;55849;48.482;2.332;2024-01-30T05:51:14;10.48;78.99
68842;SHT35;55849;48.482;2.332;2024-01-30T05:54:17;10.50;78.70
68842;SHT35;55849;48.482;2.332;2024-01-30T05:57:19;10.53;78.52
68842;SHT35;55849;48.482;2.332;2024-01-30T06:00:20;10.59;78.56
68842;SHT35;55849;48.482;2.332;2024-01-30T06:03:22;10.60;78.68
68842;SHT35;55849;48.482;2.332;2024-01-30T06:06:23;10.66;78.62
68842;SHT35;55849;48.482;2.332;2024-01-30T06:09:26;10.66;78.84
68842;SHT35;55849;48.482;2.332;2024-01-30T06:12:28;10.66;78.81
68842;SHT35;55849;48.482;2.332;2024-01-30T06:15:30;10.71;78.88
68842;SHT35;55849;48.482;2.332;2024-01-30T06:18:32;10.71;78.76
68842;SHT35;55849;48.482;2.332;2024-01-30T06:21:34;10.74;78.82
68842;SHT35;55849;48.482;2.332;2024-01-30T06:24:38;10.79;78.77
68842;SHT35;55849;48.482;2.332;2024-01-30T06:27:39;10.83;78.98
68842;SHT35;55849;48.482;2.332;2024-01-30T06:30:41;10.84;78.99
68842;SHT35;55849;48.482;2.332;2024-01-30T06:33:46;10.87;78.82
68842;SHT35;55849;48.482;2.332;2024-01-30T06:36:47;10.88;78.71
68842;SHT35;55849;48.482;2.332;2024-01-30T06:39:50;10.93;78.80
68842;SHT35;55849;48.482;2.332;2024-01-30T06:42:52;10.93;78.73
68842;SHT35;55849;48.482;2.332;2024-01-30T06:45:54;10.98;78.72
68842;SHT35;55849;48.482;2.332;2024-01-30T06:48:56;10.98;78.72
68842;SHT35;55849;48.482;2.332;2024-01-30T06:51:57;11.03;78.33
68842;SHT35;55849;48.482;2.332;2024-01-30T06:55:00;11.05;78.38
68842;SHT35;55849;48.482;2.332;2024-01-30T06:58:02;11.05;78.36
68842;SHT35;55849;48.482;2.332;2024-01-30T07:01:04;11.07;78.01
68842;SHT35;55849;48.482;2.332;2024-01-30T07:04:05;11.07;78.52
68842;SHT35;55849;48.482;2.332;2024-01-30T07:07:07;11.11;78.15
68842;SHT35;55849;48.482;2.332;2024-01-30T07:10:14;11.10;78.16
68842;SHT35;55849;48.482;2.332;2024-01-30T07:13:15;11.11;78.15
68842;SHT35;55849;48.482;2.332;2024-01-30T07:16:17;11.11;78.16
68842;SHT35;55849;48.482;2.332;2024-01-30T07:19:19;11.12;78.14
68842;SHT35;55849;48.482;2.332;2024-01-30T07:22:20;11.15;77.98
68842;SHT35;55849;48.482;2.332;2024-01-30T07:25:23;11.18;78.47
68842;SHT35;55849;48.482;2.332;2024-01-30T07:28:27;11.21;78.26
68842;SHT35;55849;48.482;2.332;2024-01-30T07:31:28;11.21;77.99
68842;SHT35;55849;48.482;2.332;2024-01-30T07:34:30;11.23;78.15
68842;SHT35;55849;48.482;2.332;2024-01-30T07:37:31;11.25;78.09
68842;SHT35;55849;48.482;2.332;2024-01-30T07:40:34;11.28;78.08
68842;SHT35;55849;48.482;2.332;2024-01-30T07:43:37;11.29;78.12
68842;SHT35;55849;48.482;2.332;2024-01-30T07:46:39;11.29;78.18
68842;SHT35;55849;48.482;2.332;2024-01-30T07:49:41;11.33;78.26
68842;SHT35;55849;48.482;2.332;2024-01-30T07:52:42;11.36;78.28
68842;SHT35;55849;48.482;2.332;2024-01-30T07:55:45;11.38;78.08
68842;SHT35;55849;48.482;2.332;2024-01-30T07:58:47;11.39;77.93
68842;SHT35;55849;48.482;2.332;2024-01-30T08:01:50;11.43;78.03
68842;SHT35;55849;48.482;2.332;2024-01-30T08:04:52;11.46;77.94
68842;SHT35;55849;48.482;2.332;2024-01-30T08:07:53;11.46;78.23
68842;SHT35;55849;48.482;2.332;2024-01-30T08:10:56;11.52;78.08
68842;SHT35;55849;48.482;2.332;2024-01-30T08:13:58;11.52;78.14
68842;SHT35;55849;48.482;2.332;2024-01-30T08:16:59;11.53;78.26
68842;SHT35;55849;48.482;2.332;2024-01-30T08:20:01;11.57;78.04
68842;SHT35;55849;48.482;2.332;2024-01-30T08:23:04;11.60;78.23
68842;SHT35;55849;48.482;2.332;2024-01-30T08:26:07;11.63;77.99
68842;SHT35;55849;48.482;2.332;2024-01-30T08:29:09;11.64;77.99
68842;SHT35;55849;48.482;2.332;2024-01-30T08:32:11;11.69;78.17
68842;SHT35;55849;48.482;2.332;2024-01-30T08:35:13;11.73;77.79
68842;SHT35;55849;48.482;2.332;2024-01-30T08:38:16;11.75;77.90
68842;SHT35;55849;48.482;2.332;2024-01-30T08:41:19;11.74;77.70
68842;SHT35;55849;48.482;2.332;2024-01-30T08:44:20;11.81;77.81
68842;SHT35;55849;48.482;2.332;2024-01-30T08:47:22;11.82;77.65
68842;SHT35;55849;48.482;2.332;2024-01-30T08:50:23;11.84;77.89
68842;SHT35;55849;48.482;2.332;2024-01-30T08:53:25;11.84;77.95
68842;SHT35;55849;48.482;2.332;2024-01-30T08:56:28;11.85;77.90
68842;SHT35;55849;48.482;2.332;2024-01-30T08:59:29;11.88;77.54
68842;SHT35;55849;48.482;2.332;2024-01-30T09:02:31;11.92;77.76
68842;SHT35;55849;48.482;2.332;2024-01-30T09:05:33;11.94;77.58
68842;SHT35;55849;48.482;2.332;2024-01-30T09:08:34;11.97;77.51
68842;SHT35;55849;48.482;2.332;2024-01-30T09:11:37;11.97;77.49
68842;SHT35;55849;48.482;2.332;2024-01-30T09:14:39;11.98;77.48
68842;SHT35;55849;48.482;2.332;2024-01-30T09:17:41;11.98;77.60
68842;SHT35;55849;48.482;2.332;2024-01-30T09:20:43;11.99;77.81
68842;SHT35;55849;48.482;2.332;2024-01-30T09:23:45;12.01;77.79
68842;SHT35;55849;48.482;2.332;2024-01-30T09:26:48;12.06;77.88
68842;SHT35;55849;48.482;2.332;2024-01-30T09:29:50;12.06;77.48
68842;SHT35;55849;48.482;2.332;2024-01-30T09:32:51;12.08;77.35
68842;SHT35;55849;48.482;2.332;2024-01-30T09:35:53;12.11;77.82
68842;SHT35;55849;48.482;2.332;2024-01-30T09:38:55;12.09;77.74
68842;SHT35;55849;48.482;2.332;2024-01-30T09:42:03;12.14;77.54
68842;SHT35;55849;48.482;2.332;2024-01-30T09:45:06;12.14;77.70
68842;SHT35;55849;48.482;2.332;2024-01-30T09:48:08;12.15;77.58
68842;SHT35;55849;48.482;2.332;2024-01-30T09:51:11;12.18;77.71
68842;SHT35;55849;48.482;2.332;2024-01-30T09:54:14;12.18;78.04
68842;SHT35;55849;48.482;2.332;2024-01-30T09:57:17;12.19;77.96
68842;SHT35;55849;48.482;2.332;2024-01-30T10:00:19;12.22;77.79
68842;SHT35;55849;48.482;2.332;2024-01-30T10:03:23;12.25;77.76
68842;SHT35;55849;48.482;2.332;2024-01-30T10:06:26;12.28;77.63
68842;SHT35;55849;48.482;2.332;2024-01-30T10:09:32;12.33;77.96
68842;SHT35;55849;48.482;2.332;2024-01-30T10:12:36;12.32;78.02
68842;SHT35;55849;48.482;2.332;2024-01-30T10:15:37;12.34;77.82
68842;SHT35;55849;48.482;2.332;2024-01-30T10:18:41;12.39;77.84
68842;SHT35;55849;48.482;2.332;2024-01-30T10:21:42;12.42;77.90
68842;SHT35;55849;48.482;2.332;2024-01-30T10:24:44;12.44;77.99
68842;SHT35;55849;48.482;2.332;2024-01-30T10:27:47;12.47;77.82
68842;SHT35;55849;48.482;2.332;2024-01-30T10:30:57;12.49;78.05
68842;SHT35;55849;48.482;2.332;2024-01-30T10:33:59;12.53;77.43
68842;SHT35;55849;48.482;2.332;2024-01-30T10:37:07;12.54;77.70
68842;SHT35;55849;48.482;2.332;2024-01-30T10:40:13;12.57;77.65
68842;SHT35;55849;48.482;2.332;2024-01-30T10:43:19;12.61;77.49
68842;SHT35;55849;48.482;2.332;2024-01-30T10:46:30;12.60;77.76
68842;SHT35;55849;48.482;2.332;2024-01-30T10:49:33;12.65;77.64
68842;SHT35;55849;48.482;2.332;2024-01-30T10:52:36;12.65;77.61
68842;SHT35;55849;48.482;2.332;2024-01-30T10:55:38;12.71;77.67
68842;SHT35;55849;48.482;2.332;2024-01-30T10:58:42;12.73;77.74
68842;SHT35;55849;48.482;2.332;2024-01-30T11:01:44;12.75;77.75
68842;SHT35;55849;48.482;2.332;2024-01-30T11:04:46;12.78;77.26
68842;SHT35;55849;48.482;2.332;2024-01-30T11:07:48;12.80;77.20
68842;SHT35;55849;48.482;2.332;2024-01-30T11:10:49;12.83;77.59
68842;SHT35;55849;48.482;2.332;2024-01-30T11:13:52;12.85;77.53
68842;SHT35;55849;48.482;2.332;2024-01-30T11:16:57;12.87;77.62
68842;SHT35;55849;48.482;2.332;2024-01-30T11:19:59;12.88;77.42
68842;SHT35;55849;48.482;2.332;2024-01-30T11:23:01;12.89;77.54
68842;SHT35;55849;48.482;2.332;2024-01-30T11:26:06;12.91;77.60
68842;SHT35;55849;48.482;2.332;2024-01-30T11:29:09;12.94;77.42
68842;SHT35;55849;48.482;2.332;2024-01-30T11:32:11;12.96;77.38
68842;SHT35;55849;48.482;2.332;2024-01-30T11:35:13;12.96;77.05
68842;SHT35;55849;48.482;2.332;2024-01-30T11:38:15;12.99;76.94
68842;SHT35;55849;48.482;2.332;2024-01-30T11:41:17;12.98;77.39
68842;SHT35;55849;48.482;2.332;2024-01-30T11:44:20;12.98;77.50
68842;SHT35;55849;48.482;2.332;2024-01-30T11:47:22;13.03;77.27
68842;SHT35;55849;48.482;2.332;2024-01-30T11:50:24;13.03;77.09
68842;SHT35;55849;48.482;2.332;2024-01-30T11:53:27;13.03;76.97
68842;SHT35;55849;48.482;2.332;2024-01-30T11:56:28;13.06;77.28
68842;SHT35;55849;48.482;2.332;2024-01-30T11:59:31;13.08;77.35
68842;SHT35;55849;48.482;2.332;2024-01-30T12:02:33;13.08;76.95
68842;SHT35;55849;48.482;2.332;2024-01-30T12:05:34;13.06;77.28
68842;SHT35;55849;48.482;2.332;2024-01-30T12:08:36;13.09;77.32
68842;SHT35;55849;48.482;2.332;2024-01-30T12:11:43;13.10;77.24
68842;SHT35;55849;48.482;2.332;2024-01-30T12:14:47;13.12;77.17
68842;SHT35;55849;48.482;2.332;2024-01-30T12:17:49;13.10;77.14
68842;SHT35;55849;48.482;2.332;2024-01-30T12:20:57;13.13;77.03
68842;SHT35;55849;48.482;2.332;2024-01-30T12:23:59;13.10;77.22
68842;SHT35;55849;48.482;2.332;2024-01-30T12:27:01;13.12;77.09
68842;SHT35;55849;48.482;2.332;2024-01-30T12:30:07;13.15;77.45
68842;SHT35;55849;48.482;2.332;2024-01-30T12:33:09;13.16;77.30
68842;SHT35;55849;48.482;2.332;2024-01-30T12:36:11;13.19;76.84
68842;SHT35;55849;48.482;2.332;2024-01-30T12:39:13;13.19;76.84
68842;SHT35;55849;48.482;2.332;2024-01-30T12:42:15;13.20;77.05
68842;SHT35;55849;48.482;2.332;2024-01-30T12:45:19;13.20;77.05
68842;SHT35;55849;48.482;2.332;2024-01-30T12:48:21;13.22;77.08
68842;SHT35;55849;48.482;2.332;2024-01-30T12:51:23;13.22;76.99
68842;SHT35;55849;48.482;2.332;2024-01-30T12:54:25;13.24;77.34
68842;SHT35;55849;48.482;2.332;2024-01-30T12:57:26;13.22;76.99
68842;SHT35;55849;48.482;2.332;2024-01-30T13:00:29;13.23;77.32
68842;SHT35;55849;48.482;2.332;2024-01-30T13:03:31;13.29;77.10
68842;SHT35;55849;48.482;2.332;2024-01-30T13:06:33;13.26;77.07
68842;SHT35;55849;48.482;2.332;2024-01-30T13:09:34;13.27;77.01
68842;SHT35;55849;48.482;2.332;2024-01-30T13:12:36;13.29;77.27
68842;SHT35;55849;48.482;2.332;2024-01-30T13:15:40;13.29;76.94
68842;SHT35;55849;48.482;2.332;2024-01-30T13:18:41;13.32;76.75
68842;SHT35;55849;48.482;2.332;2024-01-30T13:21:43;13.32;76.47
68842;SHT35;55849;48.482;2.332;2024-01-30T13:24:47;13.33;76.89
68842;SHT35;55849;48.482;2.332;2024-01-30T13:27:49;13.33;76.91
68842;SHT35;55849;48.482;2.332;2024-01-30T13:30:52;13.32;76.99
68842;SHT35;55849;48.482;2.332;2024-01-30T13:33:53;13.32;76.95
68842;SHT35;55849;48.482;2.332;2024-01-30T13:36:55;13.33;76.94
68842;SHT35;55849;48.482;2.332;2024-01-30T13:39:57;13.33;76.44
68842;SHT35;55849;48.482;2.332;2024-01-30T13:42:58;13.35;76.62
68842;SHT35;55849;48.482;2.332;2024-01-30T13:46:01;13.33;76.67
68842;SHT35;55849;48.482;2.332;2024-01-30T13:49:03;13.33;76.69
68842;SHT35;55849;48.482;2.332;2024-01-30T13:52:05;13.33;76.34
68842;SHT35;55849;48.482;2.332;2024-01-30T13:55:07;13.36;76.26
68842;SHT35;55849;48.482;2.332;2024-01-30T13:58:09;13.35;76.48
68842;SHT35;55849;48.482;2.332;2024-01-30T14:01:12;13.35;76.64
68842;SHT35;55849;48.482;2.332;2024-01-30T14:04:13;13.36;76.55
68842;SHT35;55849;48.482;2.332;2024-01-30T14:07:15;13.36;76.77
68842;SHT35;55849;48.482;2.332;2024-01-30T14:10:18;13.36;76.55
68842;SHT35;55849;48.482;2.332;2024-01-30T14:13:20;13.32;76.49
68842;SHT35;55849;48.482;2.332;2024-01-30T14:16:24;13.36;76.22
68842;SHT35;55849;48.482;2.332;2024-01-30T14:19:25;13.33;76.55
68842;SHT35;55849;48.482;2.332;2024-01-30T14:22:27;13.33;76.67
68842;SHT35;55849;48.482;2.332;2024-01-30T14:25:28;13.32;76.49
68842;SHT35;55849;48.482;2.332;2024-01-30T14:28:30;13.33;76.41
68842;SHT35;55849;48.482;2.332;2024-01-30T14:31:33;13.35;76.17
68842;SHT35;55849;48.482;2.332;2024-01-30T14:34:35;13.33;76.33
68842;SHT35;55849;48.482;2.332;2024-01-30T14:37:37;13.33;76.20
68842;SHT35;55849;48.482;2.332;2024-01-30T14:40:39;13.35;76.41
68842;SHT35;55849;48.482;2.332;2024-01-30T14:43:41;13.33;76.22
68842;SHT35;55849;48.482;2.332;2024-01-30T14:46:44;13.30;76.22
68842;SHT35;55849;48.482;2.332;2024-01-30T14:49:46;13.33;76.39
68842;SHT35;55849;48.482;2.332;2024-01-30T14:52:48;13.32;76.28
68842;SHT35;55849;48.482;2.332;2024-01-30T14:55:49;13.32;76.13
68842;SHT35;55849;48.482;2.332;2024-01-30T14:58:51;13.33;76.24
68842;SHT35;55849;48.482;2.332;2024-01-30T15:01:54;13.35;76.20
68842;SHT35;55849;48.482;2.332;2024-01-30T15:04:55;13.32;76.29
68842;SHT35;55849;48.482;2.332;2024-01-30T15:07:57;13.35;76.33
68842;SHT35;55849;48.482;2.332;2024-01-30T15:10:59;13.33;76.26
68842;SHT35;55849;48.482;2.332;2024-01-30T15:14:01;13.33;76.09
68842;SHT35;55849;48.482;2.332;2024-01-30T15:17:04;13.32;76.00
68842;SHT35;55849;48.482;2.332;2024-01-30T15:20:06;13.35;76.08
68842;SHT35;55849;48.482;2.332;2024-01-30T15:23:08;13.33;75.83
68842;SHT35;55849;48.482;2.332;2024-01-30T15:26:09;13.30;75.74
68842;SHT35;55849;48.482;2.332;2024-01-30T15:29:11;13.29;75.76
68842;SHT35;55849;48.482;2.332;2024-01-30T15:32:14;13.29;75.78
68842;SHT35;55849;48.482;2.332;2024-01-30T15:35:16;13.24;75.77
68842;SHT35;55849;48.482;2.332;2024-01-30T15:38:18;13.23;75.78
68842;SHT35;55849;48.482;2.332;2024-01-30T15:41:21;13.20;75.79
68842;SHT35;55849;48.482;2.332;2024-01-30T15:44:23;13.22;75.87
68842;SHT35;55849;48.482;2.332;2024-01-30T15:47:26;13.16;75.90
68842;SHT35;55849;48.482;2.332;2024-01-30T15:50:27;13.13;75.95
68842;SHT35;55849;48.482;2.332;2024-01-30T15:53:29;13.15;76.08
68842;SHT35;55849;48.482;2.332;2024-01-30T15:56:30;13.13;76.13
68842;SHT35;55849;48.482;2.332;2024-01-30T15:59:32;13.10;76.18
68842;SHT35;55849;48.482;2.332;2024-01-30T16:02:35;13.08;76.19
68842;SHT35;55849;48.482;2.332;2024-01-30T16:05:37;13.05;76.29
68842;SHT35;55849;48.482;2.332;2024-01-30T16:08:39;13.05;76.30
68842;SHT35;55849;48.482;2.332;2024-01-30T16:11:42;13.06;76.35
68842;SHT35;55849;48.482;2.332;2024-01-30T16:14:43;13.05;76.24
68842;SHT35;55849;48.482;2.332;2024-01-30T16:17:46;13.05;76.25
68842;SHT35;55849;48.482;2.332;2024-01-30T16:20:48;12.96;76.35
68842;SHT35;55849;48.482;2.332;2024-01-30T16:23:50;12.98;76.55
68842;SHT35;55849;48.482;2.332;2024-01-30T16:26:54;12.95;76.52
68842;SHT35;55849;48.482;2.332;2024-01-30T16:29:57;12.95;76.54
68842;SHT35;55849;48.482;2.332;2024-01-30T16:33:00;12.91;76.66
68842;SHT35;55849;48.482;2.332;2024-01-30T16:36:02;12.92;76.51
68842;SHT35;55849;48.482;2.332;2024-01-30T16:39:04;12.88;76.66
68842;SHT35;55849;48.482;2.332;2024-01-30T16:42:06;12.88;76.73
68842;SHT35;55849;48.482;2.332;2024-01-30T16:45:08;12.85;76.78
68842;SHT35;55849;48.482;2.332;2024-01-30T16:48:11;12.84;76.80
68842;SHT35;55849;48.482;2.332;2024-01-30T16:51:17;12.83;76.78
68842;SHT35;55849;48.482;2.332;2024-01-30T16:54:19;12.81;76.82
68842;SHT35;55849;48.482;2.332;2024-01-30T16:57:20;12.77;76.86
68842;SHT35;55849;48.482;2.332;2024-01-30T17:00:22;12.75;76.89
68842;SHT35;55849;48.482;2.332;2024-01-30T17:03:25;12.74;76.88
68842;SHT35;55849;48.482;2.332;2024-01-30T17:06:27;12.75;76.90
68842;SHT35;55849;48.482;2.332;2024-01-30T17:09:28;12.71;76.95
68842;SHT35;55849;48.482;2.332;2024-01-30T17:12:30;12.69;76.97
68842;SHT35;55849;48.482;2.332;2024-01-30T17:15:32;12.69;76.95
68842;SHT35;55849;48.482;2.332;2024-01-30T17:18:36;12.68;77.06
68842;SHT35;55849;48.482;2.332;2024-01-30T17:21:37;12.69;77.01
68842;SHT35;55849;48.482;2.332;2024-01-30T17:24:39;12.67;76.99
68842;SHT35;55849;48.482;2.332;2024-01-30T17:27:40;12.65;77.01
68842;SHT35;55849;48.482;2.332;2024-01-30T17:30:42;12.65;77.00
68842;SHT35;55849;48.482;2.332;2024-01-30T17:33:45;12.65;77.03
68842;SHT35;55849;48.482;2.332;2024-01-30T17:36:47;12.67;77.06
68842;SHT35;55849;48.482;2.332;2024-01-30T17:39:48;12.63;77.05
68842;SHT35;55849;48.482;2.332;2024-01-30T17:42:50;12.61;77.06
68842;SHT35;55849;48.482;2.332;2024-01-30T17:45:51;12.61;77.10
68842;SHT35;55849;48.482;2.332;2024-01-30T17:48:54;12.60;77.08
68842;SHT35;55849;48.482;2.332;2024-01-30T17:51:56;12.59;77.04
68842;SHT35;55849;48.482;2.332;2024-01-30T17:54:57;12.60;77.15
68842;SHT35;55849;48.482;2.332;2024-01-30T17:57:59;12.57;77.10
68842;SHT35;55849;48.482;2.332;2024-01-30T18:01:02;12.57;77.07
68842;SHT35;55849;48.482;2.332;2024-01-30T18:04:05;12.56;77.12
68842;SHT35;55849;48.482;2.332;2024-01-30T18:07:07;12.56;77.09
68842;SHT35;55849;48.482;2.332;2024-01-30T18:10:09;12.54;77.03
68842;SHT35;55849;48.482;2.332;2024-01-30T18:13:13;12.53;77.12
68842;SHT35;55849;48.482;2.332;2024-01-30T18:16:15;12.51;77.03
68842;SHT35;55849;48.482;2.332;2024-01-30T18:19:18;12.46;77.07
68842;SHT35;55849;48.482;2.332;2024-01-30T18:22:20;12.49;77.06
68842;SHT35;55849;48.482;2.332;2024-01-30T18:25:21;12.47;76.94
68842;SHT35;55849;48.482;2.332;2024-01-30T18:28:23;12.44;76.95
68842;SHT35;55849;48.482;2.332;2024-01-30T18:31:24;12.44;76.94
68842;SHT35;55849;48.482;2.332;2024-01-30T18:34:27;12.44;76.93
68842;SHT35;55849;48.482;2.332;2024-01-30T18:37:29;12.40;76.85
68842;SHT35;55849;48.482;2.332;2024-01-30T18:40:31;12.36;76.92
68842;SHT35;55849;48.482;2.332;2024-01-30T18:43:32;12.37;76.57
68842;SHT35;55849;48.482;2.332;2024-01-30T18:46:34;12.36;76.35
68842;SHT35;55849;48.482;2.332;2024-01-30T18:49:37;12.36;76.68
68842;SHT35;55849;48.482;2.332;2024-01-30T18:52:39;12.32;76.44
68842;SHT35;55849;48.482;2.332;2024-01-30T18:55:41;12.34;76.63
68842;SHT35;55849;48.482;2.332;2024-01-30T18:58:42;12.32;76.92
68842;SHT35;55849;48.482;2.332;2024-01-30T19:01:44;12.32;76.77
68842;SHT35;55849;48.482;2.332;2024-01-30T19:04:47;12.29;76.89
68842;SHT35;55849;48.482;2.332;2024-01-30T19:07:50;12.29;76.98
68842;SHT35;55849;48.482;2.332;2024-01-30T19:10:52;12.28;77.01
68842;SHT35;55849;48.482;2.332;2024-01-30T19:13:55;12.25;77.05
68842;SHT35;55849;48.482;2.332;2024-01-30T19:16:57;12.24;77.24